Time;durP1;ratioP1;P1;durP2;ratioP2;P2;SDS_P1;SDS_P2;PMS_P1;PMS_P2;Temp;Humidity;BMP_temperature;BMP_pressure;BME280_temperature;BME280_humidity;BME280_pressure;Samples;Min_cycle;Max_cycle;Signal;HPM_P1;HPM_P2
2022/09/17 00:01:07;;;;;;;0.77;0.40;;;12.20;99.90;12.30;99447.00;;;;4896657;28;93063;-60
2022/09/17 00:03:33;;;;;;;0.30;0.30;;;12.30;99.90;12.30;99435.00;;;;4897564;28;92602;-60
2022/09/17 00:06:06;;;;;;;0.50;0.50;;;12.30;99.90;12.30;99434.00;;;;4896375;28;92829;-59
2022/09/17 00:08:33;;;;;;;3.50;0.50;;;12.30;99.90;12.30;99453.00;;;;4896093;28;93721;-59
2022/09/17 00:11:11;;;;;;;0.40;0.40;;;12.30;99.90;12.30;99455.00;;;;4894529;28;93859;-59
2022/09/17 00:13:37;;;;;;;0.80;0.63;;;12.30;99.90;12.30;99454.00;;;;4895735;28;92796;-59
2022/09/17 00:16:03;;;;;;;0.57;0.57;;;12.30;99.90;12.30;99452.00;;;;4896602;28;93163;-60
2022/09/17 00:18:29;;;;;;;0.70;0.40;;;12.40;99.90;12.30;99448.00;;;;4896114;28;101181;-59
2022/09/17 00:20:54;;;;;;;0.37;0.30;;;12.30;99.90;12.30;99445.00;;;;4894550;28;123391;-57
2022/09/17 00:23:20;;;;;;;0.63;0.53;;;12.30;99.90;12.30;99451.00;;;;4896382;28;92915;-59
2022/09/17 00:25:46;;;;;;;0.60;0.40;;;12.30;99.90;12.30;99446.00;;;;4895232;28;109301;-60
2022/09/17 00:28:13;;;;;;;0.57;0.50;;;12.30;99.90;12.30;99453.00;;;;4895145;28;120898;-59
2022/09/17 00:30:42;;;;;;;4.20;0.50;;;12.30;99.90;12.30;99459.00;;;;4895031;28;92989;-58
2022/09/17 00:33:11;;;;;;;1.33;0.53;;;12.30;99.90;12.30;99459.00;;;;4895271;28;101770;-58
2022/09/17 00:35:37;;;;;;;1.20;0.53;;;12.30;99.90;12.20;99453.00;;;;4895163;28;94051;-58
2022/09/17 00:38:03;;;;;;;1.03;0.70;;;12.20;99.90;12.20;99455.00;;;;4895262;28;122891;-58
2022/09/17 00:40:28;;;;;;;0.43;0.40;;;12.20;99.90;12.20;99471.00;;;;4894527;28;120419;-58
2022/09/17 00:42:54;;;;;;;0.77;0.27;;;12.20;99.90;12.20;99461.00;;;;4895111;28;109262;-58
2022/09/17 00:45:20;;;;;;;0.60;0.30;;;12.10;99.90;12.10;99465.00;;;;4895008;28;106991;-60
2022/09/17 00:48:02;;;;;;;2.27;0.40;;;12.10;99.90;12.10;99462.00;;;;4893690;28;94263;-59
2022/09/17 00:50:39;;;;;;;2.37;0.67;;;12.10;99.90;12.10;99460.00;;;;4909410;28;93244;-59
2022/09/17 00:53:09;;;;;;;0.60;0.60;;;12.10;99.90;12.10;99476.00;;;;4910575;28;92190;-59
2022/09/17 00:55:47;;;;;;;2.87;0.90;;;12.10;99.90;12.10;99476.00;;;;4895810;28;93221;-60
2022/09/17 00:58:17;;;;;;;2.37;0.63;;;12.10;99.90;12.10;99476.00;;;;4892991;28;111523;-60
2022/09/17 01:00:45;;;;;;;1.80;0.80;;;12.00;99.90;12.10;99464.00;;;;4892771;28;93993;-58
2022/09/17 01:03:12;;;;;;;1.80;0.47;;;12.10;99.90;12.10;99470.00;;;;4896171;28;92748;-60
2022/09/17 01:05:45;;;;;;;0.90;0.83;;;12.00;99.90;12.10;99469.00;;;;4895578;28;92894;-57
2022/09/17 01:08:44;;;;;;;1.27;0.93;;;12.10;99.90;12.10;99468.00;;;;4909059;28;93475;-60
2022/09/17 01:11:55;;;;;;;2.63;0.73;;;12.10;99.90;12.10;99477.00;;;;4894545;28;93484;-59
2022/09/17 01:14:50;;;;;;;1.77;0.40;;;12.10;99.90;12.10;99472.00;;;;4895048;28;93219;-57
2022/09/17 01:17:30;;;;;;;1.77;0.80;;;12.10;99.90;12.10;99467.00;;;;4876923;28;99553;-59
2022/09/17 01:20:46;;;;;;;0.67;0.63;;;12.10;99.90;12.10;99470.00;;;;4907467;28;115768;-59
2022/09/17 01:23:55;;;;;;;1.00;0.53;;;12.10;99.90;12.10;99472.00;;;;4894294;28;93073;-60
2022/09/17 01:27:08;;;;;;;1.67;0.60;;;12.10;99.90;12.10;99477.00;;;;4894738;28;92686;-60
2022/09/17 01:30:06;;;;;;;1.77;0.70;;;12.10;99.90;12.20;99469.00;;;;4893260;28;93760;-59
2022/09/17 01:32:44;;;;;;;1.57;0.60;;;12.10;99.90;12.20;99465.00;;;;4894465;28;93312;-60
2022/09/17 01:35:21;;;;;;;0.73;0.63;;;12.10;99.90;12.20;99457.00;;;;4894519;28;92992;-58
2022/09/17 01:38:27;;;;;;;0.77;0.50;;;12.20;99.90;12.10;99468.00;;;;4895096;28;92889;-59
2022/09/17 01:41:30;;;;;;;1.17;0.60;;;12.20;99.90;12.20;99459.00;;;;4892344;28;92955;-60
2022/09/17 01:44:15;;;;;;;1.97;0.83;;;12.10;99.90;12.20;99473.00;;;;4892406;28;93066;-59
2022/09/17 01:46:52;;;;;;;0.63;0.57;;;12.20;99.90;12.20;99469.00;;;;4907579;28;114242;-58
2022/09/17 01:49:20;;;;;;;0.30;0.30;;;12.20;99.90;12.20;99462.00;;;;4908730;28;97338;-57
2022/09/17 01:51:49;;;;;;;0.50;0.50;;;12.20;99.90;12.20;99465.00;;;;4892351;28;93034;-58
2022/09/17 01:54:34;;;;;;;1.37;0.50;;;12.20;99.90;12.20;99474.00;;;;4894238;28;93955;-60
2022/09/17 01:57:31;;;;;;;0.53;0.53;;;12.20;99.90;12.20;99468.00;;;;4908614;28;93914;-57
2022/09/17 02:00:10;;;;;;;0.90;0.47;;;12.20;99.90;12.20;99453.00;;;;4869822;28;93069;-59
2022/09/17 02:02:57;;;;;;;2.23;0.43;;;12.20;99.90;12.20;99457.00;;;;4908586;28;92872;-60
2022/09/17 02:05:48;;;;;;;0.57;0.37;;;12.20;99.90;12.20;99465.00;;;;4894175;28;93648;-59
2022/09/17 02:08:20;;;;;;;0.77;0.47;;;12.20;99.90;12.20;99459.00;;;;4893625;28;113878;-56
2022/09/17 02:11:21;;;;;;;2.40;0.47;;;12.20;99.90;12.20;99473.00;;;;4875936;28;93054;-59
2022/09/17 02:13:51;;;;;;;3.90;1.00;;;12.20;99.90;12.20;99474.00;;;;4887740;28;92965;-59
2022/09/17 02:16:27;;;;;;;0.40;0.40;;;12.20;99.90;12.20;99467.00;;;;4894036;28;119193;-60
2022/09/17 02:19:15;;;;;;;0.30;0.30;;;12.20;99.90;12.20;99473.00;;;;4894435;28;93348;-58
2022/09/17 02:21:59;;;;;;;0.97;0.40;;;12.20;99.90;12.20;99484.00;;;;4893281;28;92723;-61
2022/09/17 02:24:41;;;;;;;0.53;0.37;;;12.20;99.90;12.20;99480.00;;;;4892916;28;105220;-59
2022/09/17 02:27:22;;;;;;;3.23;0.60;;;12.20;99.90;12.20;99477.00;;;;4875710;28;115510;-58
2022/09/17 02:29:48;;;;;;;0.40;0.40;;;12.30;99.90;12.20;99477.00;;;;4892438;28;93498;-59
2022/09/17 02:32:14;;;;;;;0.17;0.17;;;12.20;99.90;12.20;99468.00;;;;4893289;28;111439;-58
2022/09/17 02:34:40;;;;;;;2.63;0.60;;;12.30;99.90;12.30;99483.00;;;;4892686;28;108758;-56
2022/09/17 02:37:06;;;;;;;0.40;0.40;;;12.20;99.90;12.30;99476.00;;;;4894397;28;93030;-59
2022/09/17 02:39:33;;;;;;;1.37;0.40;;;12.30;99.90;12.30;99479.00;;;;4894039;28;93528;-60
2022/09/17 02:42:11;;;;;;;0.80;0.53;;;12.30;99.90;12.30;99482.00;;;;4894737;28;102162;-58
2022/09/17 02:45:30;;;;;;;4.50;1.00;;;12.30;99.90;12.20;99483.00;;;;4892382;28;101070;-59
2022/09/17 02:48:07;;;;;;;1.67;0.80;;;12.30;99.90;12.20;99481.00;;;;4893870;28;94183;-55
2022/09/17 02:51:04;;;;;;;0.77;0.77;;;12.20;99.90;12.20;99478.00;;;;4892250;28;113569;-58
2022/09/17 02:53:44;;;;;;;1.40;0.73;;;12.20;99.90;12.20;99473.00;;;;4894622;28;93121;-60
2022/09/17 02:56:33;;;;;;;1.23;0.53;;;12.20;99.90;12.20;99480.00;;;;4893201;28;92935;-59
2022/09/17 02:59:25;;;;;;;0.27;0.20;;;12.20;99.90;12.20;99474.00;;;;4874932;28;93691;-59
2022/09/17 03:02:46;;;;;;;4.60;0.70;;;12.20;99.90;12.10;99474.00;;;;4892110;28;107322;-56
2022/09/17 03:05:13;;;;;;;0.87;0.70;;;12.20;99.90;12.20;99475.00;;;;4890106;28;92941;-59
2022/09/17 03:07:39;;;;;;;2.43;0.40;;;12.10;99.90;12.20;99466.00;;;;4876037;28;93067;-60
2022/09/17 03:10:06;;;;;;;0.30;0.30;;;12.10;99.90;12.20;99468.00;;;;4892900;28;122325;-58
2022/09/17 03:12:32;;;;;;;0.90;0.50;;;12.10;99.90;12.10;99463.00;;;;4892865;28;113917;-59
2022/09/17 03:14:57;;;;;;;4.00;0.80;;;12.20;99.90;12.20;99467.00;;;;4892826;28;110967;-57
2022/09/17 03:17:23;;;;;;;0.67;0.40;;;12.10;99.90;12.20;99468.00;;;;4893086;28;94696;-59
2022/09/17 03:19:49;;;;;;;0.23;0.23;;;12.10;99.90;12.20;99468.00;;;;4892762;28;121589;-58
2022/09/17 03:22:14;;;;;;;0.90;0.60;;;12.10;99.90;12.20;99470.00;;;;4893688;28;92734;-59
2022/09/17 03:24:40;;;;;;;0.50;0.37;;;12.20;99.90;12.20;99472.00;;;;4892899;28;109618;-59
2022/09/17 03:27:06;;;;;;;0.57;0.33;;;12.20;99.90;12.20;99480.00;;;;4893276;28;108784;-59
2022/09/17 03:29:31;;;;;;;1.07;0.67;;;12.20;99.90;12.20;99478.00;;;;4890296;28;123761;-60
2022/09/17 03:31:58;;;;;;;1.07;0.73;;;12.10;99.90;12.20;99487.00;;;;4892730;28;122537;-59
2022/09/17 03:34:24;;;;;;;0.50;0.50;;;12.10;99.90;12.10;99492.00;;;;4893741;28;92100;-59
2022/09/17 03:36:49;;;;;;;1.10;0.50;;;12.10;99.90;12.10;99490.00;;;;4892999;28;108352;-59
2022/09/17 03:39:15;;;;;;;0.33;0.33;;;12.10;99.90;12.10;99505.00;;;;4892282;28;119841;-58
2022/09/17 03:41:41;;;;;;;0.20;0.20;;;12.10;99.90;12.00;99494.00;;;;4892661;28;98392;-59
2022/09/17 03:44:06;;;;;;;0.67;0.67;;;12.00;99.90;12.00;99488.00;;;;4892634;28;108151;-60
2022/09/17 03:46:32;;;;;;;3.90;1.03;;;12.00;99.90;12.00;99503.00;;;;4894639;28;92806;-60
2022/09/17 03:48:58;;;;;;;0.57;0.57;;;12.00;99.90;12.00;99497.00;;;;4895396;28;121155;-59
2022/09/17 03:51:24;;;;;;;1.23;0.67;;;12.00;99.90;12.00;99505.00;;;;4895658;28;112271;-60
2022/09/17 03:53:50;;;;;;;0.50;0.47;;;12.00;99.90;12.00;99491.00;;;;4895942;28;110264;-58
2022/09/17 03:56:16;;;;;;;0.40;0.40;;;12.00;99.90;11.90;99502.00;;;;4896877;28;92979;-59
2022/09/17 03:58:42;;;;;;;1.33;0.47;;;11.90;99.90;11.90;99505.00;;;;4896861;28;92441;-60
2022/09/17 04:01:07;;;;;;;0.60;0.40;;;11.90;99.90;11.90;99503.00;;;;4895219;28;120711;-60
2022/09/17 04:03:33;;;;;;;0.50;0.43;;;11.90;99.90;11.90;99505.00;;;;4895668;28;110456;-59
2022/09/17 04:05:59;;;;;;;1.13;0.50;;;11.90;99.90;11.90;99512.00;;;;4895509;28;102318;-60
2022/09/17 04:08:25;;;;;;;0.63;0.57;;;11.90;99.90;11.90;99505.00;;;;4896927;28;93979;-59
2022/09/17 04:10:50;;;;;;;1.23;1.00;;;11.90;99.90;12.00;99506.00;;;;4894816;28;122296;-60
2022/09/17 04:13:17;;;;;;;0.70;0.50;;;11.90;99.90;12.00;99502.00;;;;4894873;28;110712;-59
2022/09/17 04:15:44;;;;;;;0.63;0.60;;;11.90;99.90;12.00;99491.00;;;;4896678;28;92814;-58
2022/09/17 04:18:10;;;;;;;0.30;0.30;;;12.00;99.90;12.00;99496.00;;;;4896001;28;92954;-59
2022/09/17 04:20:36;;;;;;;0.63;0.63;;;11.90;99.90;12.00;99496.00;;;;4895074;28;93648;-58
2022/09/17 04:23:02;;;;;;;0.37;0.37;;;12.00;99.90;12.00;99501.00;;;;4894731;28;91877;-60
2022/09/17 04:25:28;;;;;;;0.50;0.40;;;12.00;99.90;12.00;99511.00;;;;4895957;28;101020;-58
2022/09/17 04:27:53;;;;;;;0.40;0.40;;;12.00;99.90;12.00;99502.00;;;;4895237;28;123181;-61
2022/09/17 04:30:19;;;;;;;1.67;0.80;;;12.00;99.90;12.00;99499.00;;;;4894099;28;122402;-59
2022/09/17 04:32:45;;;;;;;0.20;0.20;;;12.00;99.90;12.00;99511.00;;;;4895387;28;110677;-56
2022/09/17 04:35:12;;;;;;;2.67;0.43;;;12.00;99.90;12.00;99514.00;;;;4896024;28;92667;-60
2022/09/17 04:37:38;;;;;;;1.23;0.63;;;12.00;99.90;12.00;99520.00;;;;4895872;28;94055;-60
2022/09/17 04:40:05;;;;;;;0.30;0.30;;;12.00;99.90;12.00;99510.00;;;;4892809;28;122914;-60
2022/09/17 04:42:30;;;;;;;1.60;0.40;;;12.00;99.90;12.00;99510.00;;;;4894557;28;92916;-59
2022/09/17 04:44:56;;;;;;;0.43;0.40;;;12.00;99.90;12.00;99515.00;;;;4895035;28;108080;-59
2022/09/17 04:47:23;;;;;;;0.80;0.70;;;11.90;99.90;12.00;99518.00;;;;4896467;28;93162;-59
2022/09/17 04:49:49;;;;;;;2.10;0.70;;;12.00;99.90;12.00;99509.00;;;;4895338;28;92635;-59
2022/09/17 04:52:14;;;;;;;0.93;0.70;;;11.90;99.90;12.00;99507.00;;;;4893430;28;110243;-60
2022/09/17 04:54:40;;;;;;;0.40;0.40;;;12.00;99.90;12.00;99516.00;;;;4894190;28;108735;-60
2022/09/17 04:57:06;;;;;;;2.73;0.60;;;12.00;99.90;12.00;99505.00;;;;4894644;28;120758;-58
2022/09/17 04:59:31;;;;;;;0.63;0.63;;;12.00;99.90;11.90;99512.00;;;;4893954;28;122489;-58
2022/09/17 05:01:57;;;;;;;0.40;0.40;;;12.00;99.90;11.90;99520.00;;;;4890391;28;111540;-59
2022/09/17 05:04:23;;;;;;;0.30;0.30;;;11.90;99.90;12.00;99520.00;;;;4894273;28;109984;-60
2022/09/17 05:06:48;;;;;;;0.50;0.50;;;11.90;99.90;12.00;99524.00;;;;4877110;28;111447;-59
2022/09/17 05:09:14;;;;;;;0.50;0.30;;;11.90;99.90;12.00;99529.00;;;;4893931;28;93546;-58
2022/09/17 05:11:40;;;;;;;0.73;0.73;;;11.90;99.90;11.90;99531.00;;;;4910426;28;92066;-58
2022/09/17 05:14:06;;;;;;;0.93;0.57;;;11.90;99.90;11.90;99528.00;;;;4895422;28;93084;-59
2022/09/17 05:16:32;;;;;;;0.80;0.80;;;11.90;99.90;11.80;99529.00;;;;4895026;28;103493;-58
2022/09/17 05:18:57;;;;;;;0.90;0.53;;;11.80;99.90;11.80;99532.00;;;;4894604;28;93797;-59
2022/09/17 05:21:23;;;;;;;0.67;0.63;;;11.80;99.90;11.80;99537.00;;;;4892586;28;108218;-58
2022/09/17 05:23:49;;;;;;;2.10;0.43;;;11.80;99.90;11.70;99528.00;;;;4877658;28;93128;-59
2022/09/17 05:26:15;;;;;;;1.40;0.57;;;11.70;99.90;11.60;99529.00;;;;4890466;28;122831;-60
2022/09/17 05:28:41;;;;;;;0.20;0.20;;;11.60;99.90;11.50;99527.00;;;;4890251;28;121644;-59
2022/09/17 05:31:07;;;;;;;0.53;0.50;;;11.50;99.90;11.40;99529.00;;;;4891674;28;93307;-60
2022/09/17 05:33:33;;;;;;;1.50;0.57;;;11.40;99.90;11.30;99541.00;;;;4891053;28;109037;-61
2022/09/17 05:35:59;;;;;;;0.57;0.57;;;11.30;99.90;11.20;99538.00;;;;4891179;28;92940;-61
2022/09/17 05:38:25;;;;;;;0.57;0.57;;;11.30;99.90;11.10;99544.00;;;;4891286;28;93183;-63
2022/09/17 05:40:50;;;;;;;2.07;0.77;;;11.20;99.90;11.00;99540.00;;;;4890766;28;99338;-62
2022/09/17 05:43:16;;;;;;;0.90;0.67;;;11.10;99.90;11.00;99542.00;;;;4891406;28;94003;-61
2022/09/17 05:45:42;;;;;;;0.43;0.40;;;11.00;99.90;10.90;99546.00;;;;4890875;28;100156;-60
2022/09/17 05:48:13;;;;;;;0.50;0.50;;;11.00;99.90;10.90;99543.00;;;;4891603;28;93237;-63
2022/09/17 05:50:40;;;;;;;1.17;0.77;;;11.00;99.90;10.90;99539.00;;;;4892053;28;92978;-61
2022/09/17 05:53:10;;;;;;;0.40;0.40;;;10.90;99.90;10.90;99544.00;;;;4891836;28;92862;-61
2022/09/17 05:55:36;;;;;;;0.40;0.40;;;10.90;99.90;10.90;99542.00;;;;4888039;28;93980;-60
2022/09/17 05:58:17;;;;;;;1.37;0.97;;;10.90;99.90;10.90;99542.00;;;;4890927;28;93593;-62
2022/09/17 06:00:45;;;;;;;0.93;0.80;;;10.90;99.90;10.90;99551.00;;;;4903786;28;92171;-63
2022/09/17 06:03:13;;;;;;;2.73;0.93;;;11.00;99.90;10.90;99542.00;;;;4891808;28;93149;-62
2022/09/17 06:05:39;;;;;;;0.73;0.60;;;11.00;99.90;11.00;99541.00;;;;4890377;28;114074;-62
2022/09/17 06:08:05;;;;;;;0.40;0.40;;;11.00;99.90;11.00;99541.00;;;;4890896;28;94323;-63
2022/09/17 06:10:31;;;;;;;0.30;0.30;;;11.00;99.90;11.00;99540.00;;;;4888475;28;103448;-62
2022/09/17 06:12:58;;;;;;;0.67;0.67;;;11.00;99.90;11.10;99537.00;;;;4891393;28;92960;-64
2022/09/17 06:15:25;;;;;;;0.60;0.60;;;11.00;99.90;11.10;99543.00;;;;4888301;28;122470;-64
2022/09/17 06:17:51;;;;;;;0.70;0.50;;;11.00;99.90;11.10;99539.00;;;;4890778;28;93505;-64
2022/09/17 06:20:18;;;;;;;0.77;0.63;;;11.00;99.90;11.10;99546.00;;;;4890824;28;93124;-65
2022/09/17 06:22:44;;;;;;;0.80;0.80;;;11.10;99.90;11.10;99543.00;;;;4873236;28;93196;-66
2022/09/17 06:25:09;;;;;;;0.50;0.47;;;11.10;99.90;11.20;99544.00;;;;4890198;28;101036;-66
2022/09/17 06:27:35;;;;;;;1.00;0.90;;;11.10;99.90;11.20;99547.00;;;;4904222;28;121513;-66
2022/09/17 06:30:01;;;;;;;2.43;0.70;;;11.20;99.90;11.20;99545.00;;;;4889720;28;110005;-65
2022/09/17 06:32:27;;;;;;;2.83;0.77;;;11.20;99.90;11.20;99549.00;;;;4890594;28;94404;-66
2022/09/17 06:34:54;;;;;;;0.80;0.77;;;11.20;99.90;11.30;99540.00;;;;4889522;28;93496;-66
2022/09/17 06:37:27;;;;;;;0.33;0.33;;;11.30;99.90;11.30;99537.00;;;;4890428;28;93786;-65
2022/09/17 06:39:53;;;;;;;0.57;0.57;;;11.30;99.90;11.30;99533.00;;;;4890386;28;93108;-64
2022/09/17 06:42:18;;;;;;;1.10;0.67;;;11.30;99.90;11.30;99530.00;;;;4891401;28;93004;-64
2022/09/17 06:44:44;;;;;;;2.80;0.47;;;11.30;99.90;11.30;99539.00;;;;4889215;28;122171;-64
2022/09/17 06:47:10;;;;;;;0.50;0.50;;;11.20;99.90;11.30;99539.00;;;;4889492;28;122544;-65
2022/09/17 06:49:35;;;;;;;2.97;1.00;;;11.30;99.90;11.30;99533.00;;;;4889966;28;110708;-65
2022/09/17 06:52:02;;;;;;;2.53;0.97;;;11.30;99.90;11.30;99534.00;;;;4890390;28;92976;-65
2022/09/17 06:54:28;;;;;;;1.13;1.03;;;11.30;99.90;11.30;99526.00;;;;4889707;28;93979;-65
2022/09/17 06:56:54;;;;;;;0.83;0.40;;;11.30;99.90;11.30;99531.00;;;;4889567;28;93856;-65
2022/09/17 06:59:19;;;;;;;0.93;0.70;;;11.30;99.90;11.30;99530.00;;;;4889061;28;106903;-65
2022/09/17 07:01:46;;;;;;;2.83;0.83;;;11.30;99.90;11.30;99538.00;;;;4889586;28;107813;-65
2022/09/17 07:04:12;;;;;;;1.47;0.80;;;11.30;99.90;11.30;99533.00;;;;4888761;28;123507;-65
2022/09/17 07:06:38;;;;;;;1.53;1.13;;;11.30;99.90;11.40;99528.00;;;;4890109;28;93811;-65
2022/09/17 07:09:06;;;;;;;1.10;1.00;;;11.40;99.90;11.40;99532.00;;;;4889695;28;110764;-65
2022/09/17 07:11:32;;;;;;;2.53;1.40;;;11.40;99.90;11.50;99533.00;;;;4890265;28;93166;-66
2022/09/17 07:13:58;;;;;;;1.43;1.10;;;11.40;99.90;11.50;99532.00;;;;4890077;28;93420;-64
2022/09/17 07:16:25;;;;;;;1.80;1.10;;;11.50;99.90;11.60;99540.00;;;;4888895;28;121288;-65
2022/09/17 07:18:51;;;;;;;1.03;1.03;;;11.50;99.90;11.60;99546.00;;;;4890656;28;92705;-65
2022/09/17 07:21:17;;;;;;;1.67;1.47;;;11.60;99.90;11.70;99543.00;;;;4891490;28;93819;-65
2022/09/17 07:23:44;;;;;;;3.60;1.13;;;11.70;99.90;11.70;99540.00;;;;4892810;28;122815;-65
2022/09/17 07:26:15;;;;;;;3.80;1.17;;;11.70;99.90;11.80;99536.00;;;;4893326;28;94064;-64
2022/09/17 07:28:42;;;;;;;2.73;1.90;;;11.80;99.90;11.90;99547.00;;;;4893633;28;92754;-65
2022/09/17 07:31:09;;;;;;;2.33;1.70;;;11.90;99.90;12.00;99542.00;;;;4893656;28;93474;-66
2022/09/17 07:33:36;;;;;;;2.50;1.47;;;11.90;99.90;12.10;99545.00;;;;4893516;28;93069;-65
2022/09/17 07:36:07;;;;;;;5.60;1.73;;;12.00;99.90;12.20;99538.00;;;;4892369;28;110630;-65
2022/09/17 07:38:33;;;;;;;2.50;1.20;;;12.10;99.90;12.20;99544.00;;;;4893214;28;100956;-65
2022/09/17 07:41:14;;;;;;;1.33;1.17;;;12.20;99.90;12.30;99551.00;;;;4892853;28;93133;-65
2022/09/17 07:43:41;;;;;;;2.23;1.33;;;12.30;99.90;12.30;99535.00;;;;4892976;28;94002;-65
2022/09/17 07:46:12;;;;;;;0.67;0.57;;;12.30;99.90;12.40;99548.00;;;;4892014;28;99477;-65
2022/09/17 07:48:38;;;;;;;1.30;1.13;;;12.40;99.90;12.50;99548.00;;;;4892869;28;92798;-65
2022/09/17 07:51:04;;;;;;;0.83;0.73;;;12.40;99.90;12.50;99554.00;;;;4893376;28;92849;-65
2022/09/17 07:53:29;;;;;;;2.77;2.07;;;12.40;99.90;12.60;99552.00;;;;4892441;28;115225;-65
2022/09/17 07:55:58;;;;;;;1.83;1.63;;;12.50;99.90;12.60;99550.00;;;;4891675;28;122495;-66
2022/09/17 07:58:29;;;;;;;1.73;1.07;;;12.60;99.90;12.70;99560.00;;;;4892950;28;93103;-65
2022/09/17 08:01:10;;;;;;;2.37;1.10;;;12.70;99.90;12.70;99572.00;;;;4913087;28;92930;-65
2022/09/17 08:03:38;;;;;;;1.20;0.90;;;12.70;99.90;12.80;99562.00;;;;4892809;28;93611;-65
2022/09/17 08:06:07;;;;;;;0.93;0.70;;;12.70;99.90;12.80;99579.00;;;;4892935;28;93365;-64
2022/09/17 08:08:34;;;;;;;3.47;1.43;;;12.80;99.90;12.80;99581.00;;;;4894518;28;92945;-64
2022/09/17 08:11:09;;;;;;;3.20;0.70;;;12.80;99.90;12.90;99586.00;;;;4874813;28;94140;-63
2022/09/17 08:13:35;;;;;;;3.50;1.53;;;12.90;99.90;13.10;99581.00;;;;4891280;28;105102;-64
2022/09/17 08:16:12;;;;;;;1.33;1.07;;;13.00;99.90;13.20;99581.00;;;;4891408;28;120152;-64
2022/09/17 08:18:38;;;;;;;3.13;1.00;;;13.10;99.90;13.30;99584.00;;;;4893284;28;92915;-63
2022/09/17 08:21:06;;;;;;;1.50;1.33;;;13.20;99.90;13.30;99578.00;;;;4891665;28;92973;-64
2022/09/17 08:23:35;;;;;;;4.80;1.00;;;13.30;99.90;13.30;99584.00;;;;4892082;28;93582;-63
2022/09/17 08:26:03;;;;;;;3.23;0.77;;;13.30;99.90;13.30;99580.00;;;;4892175;28;93032;-64
2022/09/17 08:28:30;;;;;;;4.40;1.10;;;13.30;99.90;13.30;99599.00;;;;4893227;28;92315;-64
2022/09/17 08:31:07;;;;;;;0.60;0.60;;;13.30;99.90;13.30;99587.00;;;;4892286;28;93059;-64
2022/09/17 08:33:35;;;;;;;3.87;1.90;;;13.20;99.90;13.30;99597.00;;;;4890453;28;94511;-64
2022/09/17 08:36:02;;;;;;;2.47;1.63;;;13.30;99.90;13.30;99598.00;;;;4891223;28;93945;-64
2022/09/17 08:38:32;;;;;;;2.00;1.10;;;13.20;99.90;13.30;99607.00;;;;4891920;28;93146;-64
2022/09/17 08:41:04;;;;;;;3.63;1.63;;;13.30;99.90;13.40;99608.00;;;;4892250;28;93116;-63
2022/09/17 08:43:37;;;;;;;2.80;1.40;;;13.60;99.90;13.40;99615.00;;;;4874438;28;93105;-63
2022/09/17 08:46:03;;;;;;;2.83;1.50;;;13.40;99.90;13.50;99623.00;;;;4905570;28;114133;-63
2022/09/17 08:48:41;;;;;;;2.43;1.43;;;13.40;99.90;13.60;99615.00;;;;4891862;28;105394;-63
2022/09/17 08:51:55;;;;;;;2.07;1.07;;;13.50;99.90;13.60;99611.00;;;;4891337;28;92693;-63
2022/09/17 08:55:02;;;;;;;2.23;1.30;;;13.60;99.90;13.60;99616.00;;;;4881119;28;92751;-63
2022/09/17 08:58:19;;;;;;;2.03;1.00;;;13.60;99.90;13.70;99624.00;;;;4890608;28;93181;-64
2022/09/17 09:00:58;;;;;;;1.50;1.10;;;13.70;99.90;13.80;99621.00;;;;4891129;28;93133;-63
2022/09/17 09:04:01;;;;;;;6.20;1.40;;;13.70;99.90;13.90;99618.00;;;;4891502;28;93776;-62
2022/09/17 09:06:34;;;;;;;6.67;1.43;;;13.80;99.90;14.00;99624.00;;;;4891930;28;93911;-63
2022/09/17 09:09:05;;;;;;;1.13;1.00;;;13.90;99.90;14.10;99624.00;;;;4888224;28;93259;-62
2022/09/17 09:11:31;;;;;;;3.47;1.13;;;14.00;99.90;14.10;99628.00;;;;4891962;28;92837;-62
2022/09/17 09:14:25;;;;;;;1.00;0.87;;;14.10;99.90;14.20;99630.00;;;;4891888;28;92975;-61
2022/09/17 09:16:54;;;;;;;2.33;0.90;;;14.10;99.90;14.60;99638.00;;;;4890923;28;116889;-61
2022/09/17 09:19:29;;;;;;;1.13;0.90;;;14.40;99.90;14.90;99627.00;;;;4891510;28;92889;-61
2022/09/17 09:22:29;;;;;;;3.90;0.60;;;14.70;99.90;15.20;99620.00;;;;4889824;28;92448;-61
2022/09/17 09:25:20;;;;;;;1.13;0.85;;;15.00;99.90;15.50;99633.00;;;;4891286;28;93383;-61
2022/09/17 09:28:41;;;;;;;5.05;0.80;;;15.30;99.90;15.60;99631.00;;;;4904899;28;93256;-61
2022/09/17 09:31:35;;;;;;;1.25;1.00;;;15.50;99.90;15.50;99632.00;;;;4890771;28;93676;-62
2022/09/17 09:34:02;;;;;;;3.23;1.00;;;15.50;99.90;15.40;99621.00;;;;4905336;28;95067;-61
2022/09/17 09:36:31;;;;;;;1.52;0.60;;;15.30;99.90;15.30;99625.00;;;;4890433;28;101596;-61
2022/09/17 09:39:03;;;;;;;3.78;0.82;;;15.30;99.90;15.20;99631.00;;;;4886897;28;93666;-62
2022/09/17 09:41:43;;;;;;;1.35;0.70;;;15.20;99.90;15.30;99634.00;;;;4873683;28;93516;-61
2022/09/17 09:44:12;;;;;;;1.25;1.00;;;15.20;99.90;15.40;99626.00;;;;4891274;28;92706;-62
2022/09/17 09:47:21;;;;;;;3.53;0.93;;;15.30;99.90;15.40;99634.00;;;;4891886;28;92876;-61
2022/09/17 09:50:28;;;;;;;0.77;0.77;;;15.40;99.90;15.40;99634.00;;;;4891251;28;93031;-60
2022/09/17 09:53:28;;;;;;;4.32;0.77;;;15.40;99.90;15.40;99631.00;;;;4890868;28;92754;-60
2022/09/17 09:56:19;;;;;;;2.00;0.82;;;15.30;99.90;15.50;99643.00;;;;4889177;28;93017;-58
2022/09/17 09:58:44;;;;;;;0.82;0.35;;;15.40;99.90;15.60;99635.00;;;;4889704;28;93684;-60
2022/09/17 10:01:19;;;;;;;2.13;0.73;;;15.40;99.90;15.80;99639.00;;;;4891034;28;92808;-60
2022/09/17 10:03:46;;;;;;;1.45;0.45;;;15.50;99.90;16.10;99642.00;;;;4890574;28;93323;-61
2022/09/17 10:06:14;;;;;;;1.13;0.88;;;15.80;99.90;16.60;99637.00;;;;4873442;28;92848;-59
2022/09/17 10:08:56;;;;;;;0.63;0.63;;;16.30;99.90;16.80;99640.00;;;;4891500;28;92840;-61
2022/09/17 10:11:24;;;;;;;0.95;0.47;;;16.50;99.90;17.00;99640.00;;;;4889880;28;93983;-60
2022/09/17 10:13:50;;;;;;;0.80;0.65;;;16.70;99.90;17.10;99652.00;;;;4887558;28;96098;-59
2022/09/17 10:16:24;;;;;;;0.98;0.73;;;16.90;99.90;17.20;99657.00;;;;4890585;28;110039;-61
2022/09/17 10:19:19;;;;;;;1.52;0.60;;;17.00;99.80;17.30;99658.00;;;;4905724;28;93209;-60
2022/09/17 10:21:44;;;;;;;0.50;0.50;;;17.10;98.40;17.40;99657.00;;;;4884763;28;93528;-60
2022/09/17 10:24:30;;;;;;;0.50;0.50;;;17.20;97.30;17.30;99658.00;;;;4888901;28;122533;-60
2022/09/17 10:27:16;;;;;;;2.35;0.65;;;17.20;96.30;17.20;99663.00;;;;4887591;28;93069;-60
2022/09/17 10:29:50;;;;;;;2.67;0.47;;;17.10;97.30;17.20;99659.00;;;;4888085;28;93051;-61
2022/09/17 10:32:18;;;;;;;1.00;0.90;;;17.10;97.20;17.00;99661.00;;;;4890423;28;93360;-61
2022/09/17 10:35:24;;;;;;;1.92;0.80;;;17.00;96.40;16.90;99667.00;;;;4890665;28;101478;-59
2022/09/17 10:37:52;;;;;;;0.80;0.47;;;16.80;96.70;16.90;99664.00;;;;4891023;28;92887;-60
2022/09/17 10:40:18;;;;;;;0.95;0.73;;;16.80;97.10;17.00;99667.00;;;;4887829;28;101858;-61
2022/09/17 10:42:49;;;;;;;3.80;0.88;;;16.80;97.30;16.90;99658.00;;;;4889388;28;123069;-60
2022/09/17 10:45:27;;;;;;;1.10;0.90;;;16.80;96.00;16.90;99657.00;;;;4886739;28;107363;-60
2022/09/17 10:47:55;;;;;;;0.50;0.50;;;16.80;96.20;16.80;99653.00;;;;4890890;28;92908;-60
2022/09/17 10:50:33;;;;;;;2.17;0.93;;;16.70;96.50;16.80;99659.00;;;;4903810;28;93807;-60
2022/09/17 10:53:16;;;;;;;0.60;0.60;;;16.70;97.10;16.80;99642.00;;;;4903986;28;93769;-60
2022/09/17 10:56:16;;;;;;;2.72;0.75;;;16.70;96.90;16.70;99644.00;;;;4890490;28;92845;-60
2022/09/17 10:58:57;;;;;;;0.88;0.75;;;16.60;96.90;16.80;99643.00;;;;4895501;28;105265;-60
2022/09/17 11:02:03;;;;;;;0.60;0.50;;;16.60;96.20;17.10;99647.00;;;;4893442;28;101567;-60
2022/09/17 11:05:05;;;;;;;3.90;0.40;;;16.80;95.10;17.70;99649.00;;;;4894012;28;113986;-61
2022/09/17 11:07:55;;;;;;;1.75;0.55;;;17.30;94.30;18.10;99641.00;;;;4895411;28;93305;-60
2022/09/17 11:10:35;;;;;;;1.05;0.47;;;17.70;93.10;18.60;99647.00;;;;4896310;28;92140;-61
2022/09/17 11:13:41;;;;;;;0.57;0.57;;;18.20;93.30;18.70;99665.00;;;;4893407;28;98295;-60
2022/09/17 11:16:18;;;;;;;2.47;0.40;;;18.40;93.30;18.20;99672.00;;;;4895522;28;92925;-61
2022/09/17 11:19:15;;;;;;;1.88;0.30;;;18.20;95.80;17.30;99666.00;;;;4911137;28;95370;-61
2022/09/17 11:22:06;;;;;;;1.80;0.40;;;17.70;97.00;16.50;99668.00;;;;4859887;28;93063;-61